createdAt,value
2022-09-16T00:01:40.105Z,23.70
2022-09-16T00:07:42.295Z,23.60
2022-09-16T00:13:45.171Z,23.50
2022-09-16T00:19:47.585Z,23.30
2022-09-16T00:25:55.961Z,23.10
2022-09-16T00:31:58.098Z,23.00
2022-09-16T00:38:00.296Z,22.80
2022-09-16T00:44:05.978Z,22.70
2022-09-16T00:50:20.829Z,22.60
2022-09-16T00:56:25.649Z,22.50
2022-09-16T01:02:28.866Z,22.50
2022-09-16T01:08:31.147Z,22.50
2022-09-16T01:14:52.073Z,22.40
2022-09-16T01:21:14.321Z,22.40
2022-09-16T01:27:39.305Z,22.50
2022-09-16T01:34:00.696Z,22.60
2022-09-16T01:40:25.438Z,22.70
2022-09-16T01:46:54.964Z,22.70
2022-09-16T01:53:14.503Z,22.80
2022-09-16T01:59:23.963Z,22.70
2022-09-16T02:05:48.900Z,22.70
2022-09-16T02:11:53.534Z,22.70
2022-09-16T02:18:04.714Z,22.70
2022-09-16T02:24:12.589Z,22.80
2022-09-16T02:30:20.817Z,22.90
2022-09-16T02:36:25.888Z,23.00
2022-09-16T02:42:29.576Z,23.00
2022-09-16T02:48:39.931Z,23.00
2022-09-16T02:55:06.408Z,22.80
2022-09-16T03:01:11.838Z,22.80
2022-09-16T03:07:15.426Z,22.90
2022-09-16T03:13:35.492Z,22.80
2022-09-16T03:19:56.755Z,22.70
2022-09-16T03:26:10.597Z,22.60
2022-09-16T03:32:21.607Z,22.60
2022-09-16T03:38:24.469Z,22.60
2022-09-16T03:44:34.905Z,22.50
2022-09-16T03:50:37.625Z,22.50
2022-09-16T03:56:39.803Z,22.50
2022-09-16T04:02:42.254Z,22.30
2022-09-16T04:08:45.232Z,22.40
2022-09-16T04:14:47.135Z,22.40
2022-09-16T04:20:49.134Z,22.50
2022-09-16T04:26:51.188Z,22.70
2022-09-16T04:32:54.759Z,22.80
2022-09-16T04:38:56.995Z,23.50
2022-09-16T04:44:59.345Z,26.00
2022-09-16T04:51:10.482Z,27.50
2022-09-16T04:57:12.465Z,28.40
2022-09-16T05:03:14.511Z,30.30
2022-09-16T05:09:16.450Z,31.20
2022-09-16T05:15:18.811Z,31.40
2022-09-16T05:21:22.558Z,31.40
2022-09-16T05:27:28.198Z,31.40
2022-09-16T05:33:31.004Z,32.50
2022-09-16T05:39:33.117Z,33.80
2022-09-16T05:45:35.612Z,33.80
2022-09-16T05:51:39.351Z,34.00
2022-09-16T05:57:41.687Z,34.20
2022-09-16T06:03:45.494Z,35.20
2022-09-16T06:09:47.824Z,35.50
2022-09-16T06:15:51.833Z,34.70
2022-09-16T06:21:54.317Z,34.50
2022-09-16T06:27:57.165Z,35.90
2022-09-16T06:33:59.751Z,36.20
2022-09-16T06:40:02.757Z,37.00
2022-09-16T06:46:13.701Z,38.10
2022-09-16T06:52:15.863Z,38.50
2022-09-16T06:58:17.967Z,38.80
2022-09-16T07:04:20.126Z,40.00
2022-09-16T07:10:24.403Z,40.90
2022-09-16T07:16:27.135Z,41.70
2022-09-16T07:22:31.632Z,41.40
2022-09-16T07:28:34.370Z,41.80
2022-09-16T07:34:36.843Z,41.70
2022-09-16T07:40:41.100Z,41.90
2022-09-16T07:46:43.366Z,41.30
2022-09-16T07:59:14.236Z,42.80
2022-09-16T08:05:19.701Z,42.80
2022-09-16T08:11:22.490Z,41.90
2022-09-16T08:17:24.604Z,42.10
2022-09-16T08:23:26.971Z,41.20
2022-09-16T08:29:29.965Z,40.90
2022-09-16T08:35:32.554Z,41.70
2022-09-16T08:41:52.906Z,41.70
2022-09-16T08:48:09.293Z,42.10
2022-09-16T08:54:18.408Z,42.20
2022-09-16T09:00:20.692Z,41.30
2022-09-16T09:06:47.236Z,41.70
2022-09-16T09:13:00.180Z,41.90
2022-09-16T09:19:15.150Z,42.50
2022-09-16T09:25:55.083Z,41.10
2022-09-16T09:32:15.849Z,41.20
2022-09-16T09:38:33.455Z,40.80
2022-09-16T09:45:01.452Z,39.80
2022-09-16T09:51:20.541Z,39.70
2022-09-16T09:57:38.260Z,35.90
2022-09-16T10:03:40.960Z,35.20
2022-09-16T10:09:50.485Z,34.80
2022-09-16T10:16:14.434Z,34.00
2022-09-16T10:22:27.724Z,36.80
2022-09-16T10:28:30.262Z,35.90
2022-09-16T10:34:40.507Z,36.70
2022-09-16T10:41:22.610Z,37.10
2022-09-16T10:47:31.178Z,37.40
2022-09-16T10:53:40.847Z,36.70
2022-09-16T11:00:03.507Z,37.70
2022-09-16T11:06:15.768Z,36.30
2022-09-16T11:12:42.615Z,36.20
2022-09-16T11:19:04.928Z,36.80
2022-09-16T11:25:27.010Z,37.00
2022-09-16T11:31:57.748Z,34.70
2022-09-16T11:38:29.319Z,33.40
2022-09-16T11:44:54.766Z,32.60
2022-09-16T11:51:20.902Z,33.40
2022-09-16T11:57:39.843Z,32.20
2022-09-16T12:03:48.772Z,33.20
2022-09-16T12:09:59.725Z,32.60
2022-09-16T12:16:07.774Z,32.40
2022-09-16T12:22:27.797Z,32.30
2022-09-16T12:28:37.435Z,31.90
2022-09-16T12:34:50.350Z,31.50
2022-09-16T12:41:20.548Z,31.20
2022-09-16T12:47:41.401Z,31.30
2022-09-16T12:53:52.753Z,31.50
2022-09-16T13:00:00.956Z,31.30
2022-09-16T13:06:23.831Z,31.20
2022-09-16T13:12:41.488Z,31.10
2022-09-16T13:18:50.150Z,30.90
2022-09-16T13:25:15.533Z,30.60
2022-09-16T13:31:28.928Z,30.40
2022-09-16T13:37:31.286Z,30.40
2022-09-16T13:43:50.922Z,30.20
2022-09-16T13:50:10.798Z,29.90
2022-09-16T13:56:37.788Z,29.70
2022-09-16T14:02:57.056Z,29.60
2022-09-16T14:09:33.728Z,29.60
2022-09-16T14:15:40.928Z,29.70
2022-09-16T14:21:42.981Z,29.50
2022-09-16T14:27:45.223Z,29.50
2022-09-16T14:33:56.616Z,29.40
2022-09-16T14:40:13.128Z,29.30
2022-09-16T14:46:17.482Z,29.30
2022-09-16T14:52:34.589Z,29.20
2022-09-16T14:58:37.138Z,29.20
2022-09-16T15:04:41.321Z,29.10
2022-09-16T15:12:46.690Z,29.00
2022-09-16T15:17:18.551Z,29.00
2022-09-16T15:23:24.542Z,28.70
2022-09-16T15:29:32.735Z,28.50
2022-09-16T15:35:36.058Z,28.30
2022-09-16T15:41:38.359Z,28.20
2022-09-16T15:47:54.162Z,28.10
2022-09-16T15:54:07.362Z,27.90
2022-09-16T16:00:15.943Z,27.80
2022-09-16T16:06:18.284Z,27.70
2022-09-16T16:12:21.244Z,27.60
2022-09-16T16:18:23.978Z,27.40
2022-09-16T16:24:26.855Z,27.30
2022-09-16T16:30:29.215Z,27.20
2022-09-16T16:36:31.659Z,27.10
2022-09-16T16:42:35.042Z,27.00
2022-09-16T16:48:38.587Z,26.80
2022-09-16T16:54:43.670Z,26.60
2022-09-16T17:00:48.714Z,26.60
2022-09-16T17:07:08.226Z,26.50
2022-09-16T17:13:13.932Z,26.40
2022-09-16T17:19:17.570Z,26.30
2022-09-16T17:25:19.781Z,26.20
2022-09-16T17:31:30.005Z,26.20
2022-09-16T17:37:32.268Z,26.20
2022-09-16T17:43:34.989Z,26.10
2022-09-16T17:49:37.187Z,26.10
2022-09-16T17:55:39.712Z,26.10
2022-09-16T18:01:42.205Z,26.00
2022-09-16T18:07:47.411Z,25.90
2022-09-16T18:13:55.513Z,25.90
2022-09-16T18:19:58.057Z,25.80
2022-09-16T18:26:06.516Z,25.70
2022-09-16T18:32:09.161Z,25.50
2022-09-16T18:38:13.208Z,25.40
2022-09-16T18:44:21.597Z,25.30
2022-09-16T18:50:23.899Z,25.20
2022-09-16T18:56:26.832Z,25.20
2022-09-16T19:02:28.946Z,25.10
2022-09-16T19:08:31.844Z,25.00
2022-09-16T19:14:34.334Z,24.90
2022-09-16T19:20:42.767Z,24.80
2022-09-16T19:26:46.798Z,24.70
2022-09-16T19:32:51.928Z,24.60
2022-09-16T19:38:55.298Z,24.60
2022-09-16T19:44:58.597Z,24.50
2022-09-16T19:51:00.850Z,24.50
2022-09-16T19:57:03.077Z,24.50
2022-09-16T20:03:05.381Z,24.40
2022-09-16T20:09:08.911Z,24.30
2022-09-16T20:15:11.158Z,24.10
2022-09-16T20:21:17.383Z,24.00
2022-09-16T20:27:19.650Z,23.90
2022-09-16T20:33:21.888Z,23.70
2022-09-16T20:39:24.049Z,23.60
2022-09-16T20:45:26.390Z,23.50
2022-09-16T20:51:33.879Z,23.20
2022-09-16T20:57:35.968Z,23.10
2022-09-16T21:03:38.258Z,23.00
2022-09-16T21:09:40.888Z,22.90
2022-09-16T21:15:43.500Z,22.70
2022-09-16T21:21:47.835Z,22.70
2022-09-16T21:27:49.912Z,22.70
2022-09-16T21:33:52.392Z,22.60
2022-09-16T21:39:54.421Z,22.50
2022-09-16T21:45:57.987Z,22.50
2022-09-16T21:52:00.124Z,22.40
2022-09-16T21:58:02.288Z,22.40
2022-09-16T22:04:08.062Z,22.40
2022-09-16T22:10:10.444Z,22.30
2022-09-16T22:16:14.967Z,22.30
2022-09-16T22:22:17.327Z,22.30
2022-09-16T22:28:19.535Z,22.20
2022-09-16T22:34:21.865Z,22.10
2022-09-16T22:40:24.365Z,22.00
2022-09-16T22:46:30.939Z,21.80
2022-09-16T22:52:33.385Z,21.60
2022-09-16T22:58:35.515Z,21.60
2022-09-16T23:04:38.185Z,21.50
2022-09-16T23:10:40.537Z,21.50
2022-09-16T23:16:42.718Z,21.40
2022-09-16T23:22:44.906Z,21.40
2022-09-16T23:28:47.997Z,21.40
2022-09-16T23:34:51.239Z,21.30
2022-09-16T23:40:53.660Z,21.20
2022-09-16T23:46:55.616Z,21.20
2022-09-16T23:52:59.606Z,21.10
2022-09-16T23:59:02.039Z,21.00
